Time;durP1;ratioP1;P1;durP2;ratioP2;P2;SDS_P1;SDS_P2;PMS_P1;PMS_P2;Temp;Humidity;BMP_temperature;BMP_pressure;BME280_temperature;BME280_humidity;BME280_pressure;Samples;Min_cycle;Max_cycle;Signal;HPM_P1;HPM_P2
2022/12/15 00:40:58;;;;;;;52.60;30.33;;;-6.50;99.90;;;;;;4977491;28;20627;-61
2022/12/15 00:43:30;;;;;;;56.27;31.40;;;-6.50;99.90;;;;;;4976764;28;20200;-59
2022/12/15 00:48:40;;;;;;;48.53;28.47;;;-6.40;99.90;;;;;;4976937;28;20215;-60
2022/12/15 00:51:06;;;;;;;52.00;30.23;;;-6.50;99.90;;;;;;4973248;28;20220;-62
2022/12/15 01:20:58;;;;;;;49.40;29.03;;;-6.60;99.90;;;;;;4973579;28;20236;-60
2022/12/15 01:23:24;;;;;;;51.13;31.57;;;-6.60;99.90;;;;;;4976779;28;20678;-60
2022/12/15 01:25:51;;;;;;;53.27;29.97;;;-6.60;99.90;;;;;;4969204;28;20278;-62
2022/12/15 01:28:16;;;;;;;51.27;30.73;;;-6.60;99.90;;;;;;4976213;28;20201;-62
2022/12/15 01:30:42;;;;;;;61.00;34.87;;;-6.60;99.90;;;;;;4975608;28;20302;-62
2022/12/15 01:33:08;;;;;;;53.97;30.97;;;-6.60;99.90;;;;;;4975891;28;20209;-60
2022/12/15 01:35:33;;;;;;;48.07;28.90;;;-6.60;99.90;;;;;;4975008;28;20259;-61
2022/12/15 01:37:59;;;;;;;51.67;30.97;;;-6.60;99.90;;;;;;4974299;28;20267;-61
2022/12/15 01:40:43;;;;;;;48.27;32.10;;;-6.50;99.90;;;;;;4976560;28;20212;-62
2022/12/15 01:43:18;;;;;;;49.17;30.13;;;-6.40;99.90;;;;;;4970736;28;21127;-61
2022/12/15 01:45:54;;;;;;;49.97;32.03;;;-6.40;99.90;;;;;;4973262;28;20295;-62
2022/12/15 01:48:33;;;;;;;44.13;26.17;;;-6.40;99.90;;;;;;4976089;28;20754;-60
2022/12/15 01:51:09;;;;;;;50.37;31.60;;;-6.30;99.90;;;;;;4971576;28;20239;-61
2022/12/15 01:53:44;;;;;;;52.67;29.70;;;-6.30;99.90;;;;;;4975587;28;20208;-61
2022/12/15 01:56:11;;;;;;;51.77;29.97;;;-6.30;99.90;;;;;;4973000;28;20762;-62
2022/12/15 01:58:41;;;;;;;55.60;33.33;;;-6.30;99.90;;;;;;4975614;28;20271;-61
2022/12/15 02:01:08;;;;;;;57.37;30.80;;;-6.40;99.90;;;;;;4975534;28;20247;-60
2022/12/15 02:03:34;;;;;;;51.13;29.87;;;-6.40;99.90;;;;;;4980975;28;20204;-61
2022/12/15 02:06:00;;;;;;;47.80;31.20;;;-6.40;99.90;;;;;;4979254;28;20203;-57
2022/12/15 02:08:26;;;;;;;57.97;30.17;;;-6.40;99.90;;;;;;4982662;28;20205;-66
2022/12/15 02:11:20;;;;;;;52.27;31.50;;;-6.40;99.90;;;;;;4985246;28;20554;-56
2022/12/15 02:13:59;;;;;;;41.93;29.20;;;-6.40;99.90;;;;;;4983983;28;20286;-55
2022/12/15 02:16:54;;;;;;;50.07;29.70;;;-6.40;99.90;;;;;;4981184;28;20495;-56
2022/12/15 02:19:35;;;;;;;47.97;30.33;;;-6.40;99.90;;;;;;4983565;28;20645;-56
2022/12/15 02:22:45;;;;;;;55.10;32.37;;;-6.50;99.90;;;;;;4984922;28;20208;-57
2022/12/15 02:25:39;;;;;;;58.00;31.67;;;-6.60;99.90;;;;;;4982672;28;20201;-57
2022/12/15 02:28:12;;;;;;;48.57;28.17;;;-6.60;99.90;;;;;;4981430;28;20228;-56
2022/12/15 02:30:46;;;;;;;52.63;29.97;;;-6.50;99.90;;;;;;4982221;28;20822;-56
2022/12/15 02:33:20;;;;;;;49.03;29.60;;;-6.50;99.90;;;;;;4982744;28;20212;-57
2022/12/15 02:35:59;;;;;;;46.87;27.67;;;-6.40;99.90;;;;;;4974289;28;20280;-56
2022/12/15 02:38:29;;;;;;;48.93;29.03;;;-6.30;99.90;;;;;;4972277;28;20213;-56
2022/12/15 02:40:59;;;;;;;53.30;31.77;;;-6.30;99.90;;;;;;4975204;28;20232;-55
2022/12/15 02:43:27;;;;;;;49.67;30.83;;;-6.30;99.90;;;;;;4975692;28;20213;-56
2022/12/15 02:46:04;;;;;;;51.67;30.33;;;-6.20;99.90;;;;;;4969993;28;20205;-56
2022/12/15 02:48:55;;;;;;;48.07;30.67;;;-6.10;99.90;;;;;;4974817;28;20679;-56
2022/12/15 02:51:33;;;;;;;51.20;30.63;;;-6.10;99.90;;;;;;4973596;28;20689;-57
2022/12/15 02:54:06;;;;;;;54.27;31.33;;;-6.00;99.90;;;;;;4972980;28;20225;-56
2022/12/15 02:56:48;;;;;;;50.20;29.57;;;-5.90;99.90;;;;;;4974741;28;20211;-56
2022/12/15 02:59:18;;;;;;;54.37;30.57;;;-5.90;99.90;;;;;;4972603;28;20197;-58
2022/12/15 03:01:52;;;;;;;48.77;28.10;;;-6.00;99.90;;;;;;4974662;28;20205;-55
2022/12/15 03:04:18;;;;;;;47.33;26.87;;;-6.10;99.90;;;;;;4974977;28;20200;-57
2022/12/15 03:06:44;;;;;;;42.43;27.27;;;-6.10;99.90;;;;;;4973564;28;20668;-58
2022/12/15 03:09:11;;;;;;;43.33;26.47;;;-6.20;99.90;;;;;;4974552;28;20200;-57
2022/12/15 03:11:36;;;;;;;52.27;26.57;;;-6.20;99.90;;;;;;4974509;28;20259;-57
2022/12/15 03:14:02;;;;;;;38.03;24.60;;;-6.20;99.90;;;;;;4975288;28;20247;-57
2022/12/15 03:16:28;;;;;;;43.63;26.00;;;-6.20;99.90;;;;;;4974372;28;20204;-56
2022/12/15 03:18:53;;;;;;;40.60;24.07;;;-6.20;99.90;;;;;;4972910;28;20639;-58
2022/12/15 03:21:19;;;;;;;46.50;26.77;;;-6.30;99.90;;;;;;4974752;28;20713;-58
2022/12/15 03:23:45;;;;;;;39.10;23.67;;;-6.30;99.90;;;;;;4974469;28;20205;-58
2022/12/15 03:26:10;;;;;;;45.77;24.63;;;-6.40;99.90;;;;;;4974357;28;20216;-56
2022/12/15 03:28:36;;;;;;;47.30;25.23;;;-6.50;99.90;;;;;;4972544;28;20216;-59
2022/12/15 03:31:05;;;;;;;49.40;27.70;;;-6.40;99.90;;;;;;4973713;28;20223;-56
2022/12/15 03:33:32;;;;;;;45.77;26.23;;;-6.60;99.90;;;;;;4966930;28;20217;-57
2022/12/15 03:35:57;;;;;;;42.13;24.80;;;-6.70;99.90;;;;;;4975185;28;20490;-58
2022/12/15 03:38:23;;;;;;;37.00;25.37;;;-6.70;99.90;;;;;;4978292;28;20746;-57
2022/12/15 03:40:48;;;;;;;41.87;24.80;;;-6.60;99.90;;;;;;4987821;28;20291;-56
2022/12/15 03:43:14;;;;;;;47.67;29.10;;;-6.50;99.90;;;;;;4988640;28;20207;-55
2022/12/15 03:45:39;;;;;;;48.40;26.50;;;-6.60;99.90;;;;;;4976432;28;20212;-57
2022/12/15 03:48:05;;;;;;;47.57;26.10;;;-6.70;99.90;;;;;;4978455;28;20204;-55
2022/12/15 03:50:30;;;;;;;47.23;24.50;;;-6.70;99.90;;;;;;4978460;28;20686;-56
2022/12/15 03:52:58;;;;;;;46.83;26.17;;;-6.70;99.90;;;;;;4977874;28;20259;-56
2022/12/15 03:55:24;;;;;;;42.57;26.57;;;-6.60;99.90;;;;;;4978709;28;20211;-56
2022/12/15 03:57:50;;;;;;;46.23;27.17;;;-6.60;99.90;;;;;;4976432;28;20261;-56
2022/12/15 04:00:17;;;;;;;45.77;27.17;;;-6.60;99.90;;;;;;4978201;28;20221;-57
2022/12/15 04:02:44;;;;;;;52.03;28.40;;;-6.60;99.90;;;;;;4977614;28;20205;-56
2022/12/15 04:05:20;;;;;;;47.13;25.47;;;-6.60;99.90;;;;;;4978075;28;20229;-57
2022/12/15 04:07:45;;;;;;;48.73;26.77;;;-6.60;99.90;;;;;;4977015;28;20209;-57
2022/12/15 04:10:11;;;;;;;44.13;26.80;;;-6.70;99.90;;;;;;4977535;28;20224;-55
2022/12/15 04:12:38;;;;;;;50.13;27.07;;;-6.60;99.90;;;;;;4978180;28;20686;-56
2022/12/15 04:15:08;;;;;;;41.50;24.77;;;-6.60;99.90;;;;;;4978051;28;20201;-56
2022/12/15 04:17:34;;;;;;;43.40;25.17;;;-6.50;99.90;;;;;;4976195;28;20565;-56
2022/12/15 04:20:08;;;;;;;45.77;26.87;;;-6.50;99.90;;;;;;4978292;28;20208;-56
2022/12/15 04:22:39;;;;;;;46.67;25.47;;;-6.40;99.90;;;;;;4978004;28;20238;-56
2022/12/15 05:33:36;;;;;;;46.67;26.17;;;-6.40;99.90;;;;;;4974561;28;20228;-56
2022/12/15 05:36:02;;;;;;;48.60;26.57;;;-6.50;99.90;;;;;;4971780;28;20205;-55
2022/12/15 05:38:27;;;;;;;36.57;20.43;;;-6.50;99.90;;;;;;4976602;28;20761;-55
2022/12/15 05:40:56;;;;;;;42.50;25.90;;;-6.60;99.90;;;;;;4976094;28;20217;-56
2022/12/15 05:43:22;;;;;;;44.83;24.93;;;-6.70;99.90;;;;;;4976084;28;20270;-55
2022/12/15 05:45:47;;;;;;;45.77;25.03;;;-6.90;99.90;;;;;;4973945;28;20208;-55
2022/12/15 05:48:13;;;;;;;49.90;28.23;;;-6.90;99.90;;;;;;4975859;28;20196;-55
2022/12/15 05:50:38;;;;;;;42.93;21.77;;;-6.80;99.90;;;;;;4975589;28;20420;-56
2022/12/15 05:53:04;;;;;;;43.70;25.37;;;-6.80;99.90;;;;;;4975726;28;20208;-56
2022/12/15 05:55:29;;;;;;;42.00;24.40;;;-6.80;99.90;;;;;;4976383;28;20203;-56
2022/12/15 05:57:55;;;;;;;47.77;24.83;;;-6.80;99.90;;;;;;4975664;28;20200;-56
2022/12/15 06:00:21;;;;;;;44.23;24.70;;;-6.80;99.90;;;;;;4973776;28;20228;-56
2022/12/15 06:02:46;;;;;;;39.23;22.80;;;-6.70;99.90;;;;;;4975607;28;20208;-55
2022/12/15 06:05:12;;;;;;;41.47;22.50;;;-6.70;99.90;;;;;;4975969;28;20263;-55
2022/12/15 06:07:37;;;;;;;47.37;26.27;;;-6.90;99.90;;;;;;4975645;28;20204;-55
2022/12/15 06:10:04;;;;;;;39.30;23.87;;;-7.20;99.90;;;;;;4974042;28;20284;-54
2022/12/15 06:12:30;;;;;;;43.43;23.90;;;-7.40;99.90;;;;;;4975727;28;20197;-56
2022/12/15 06:14:55;;;;;;;42.37;24.10;;;-7.40;99.90;;;;;;4975531;28;20532;-57
2022/12/15 06:17:21;;;;;;;43.37;24.90;;;-7.30;99.90;;;;;;4975485;28;20872;-55
2022/12/15 06:19:46;;;;;;;40.03;24.97;;;-7.20;99.90;;;;;;4975943;28;20200;-55
2022/12/15 06:22:12;;;;;;;44.37;25.87;;;-7.10;99.90;;;;;;4975378;28;20208;-55
2022/12/15 06:24:37;;;;;;;47.00;25.43;;;-7.00;99.90;;;;;;4973659;28;20711;-56
2022/12/15 06:27:03;;;;;;;47.63;25.10;;;-7.00;99.90;;;;;;4975839;28;20691;-56
2022/12/15 06:29:29;;;;;;;51.67;25.07;;;-6.90;99.90;;;;;;4973325;28;20237;-56
2022/12/15 06:31:54;;;;;;;40.23;25.43;;;-6.80;99.90;;;;;;4975359;28;20205;-56
2022/12/15 06:34:20;;;;;;;38.83;22.47;;;-6.80;99.90;;;;;;4975148;28;20208;-55
2022/12/15 06:36:46;;;;;;;40.73;24.93;;;-6.80;99.90;;;;;;4974088;28;20224;-56
2022/12/15 06:39:14;;;;;;;48.33;26.53;;;-6.80;99.90;;;;;;4975724;28;20197;-56
2022/12/15 06:41:40;;;;;;;48.17;26.10;;;-6.80;99.90;;;;;;4975645;28;20227;-55
2022/12/15 06:44:05;;;;;;;42.90;23.87;;;-6.80;99.90;;;;;;4975942;28;20205;-56
2022/12/15 06:46:32;;;;;;;44.63;23.80;;;-6.80;99.90;;;;;;4976038;28;20668;-56
2022/12/15 06:48:58;;;;;;;46.27;26.33;;;-7.00;99.90;;;;;;4974071;28;20204;-57
2022/12/15 06:51:24;;;;;;;42.70;24.97;;;-7.00;99.90;;;;;;4974454;28;20205;-57
2022/12/15 06:53:54;;;;;;;45.53;23.70;;;-7.00;99.90;;;;;;4975930;28;20200;-57
2022/12/15 06:56:27;;;;;;;40.73;23.37;;;-7.00;99.90;;;;;;4975667;28;20196;-55
2022/12/15 06:58:53;;;;;;;44.93;25.47;;;-7.00;99.90;;;;;;4971694;28;20507;-56
2022/12/15 07:01:20;;;;;;;36.57;22.60;;;-7.00;99.90;;;;;;4975664;28;20216;-58
2022/12/15 07:03:46;;;;;;;40.87;23.87;;;-7.00;99.90;;;;;;4975553;28;20201;-58
2022/12/15 07:06:14;;;;;;;36.53;22.47;;;-6.90;99.90;;;;;;4975212;28;20200;-57
2022/12/15 07:08:40;;;;;;;38.47;22.27;;;-6.90;99.90;;;;;;4973036;28;20315;-56
2022/12/15 07:11:08;;;;;;;35.07;22.07;;;-7.00;99.90;;;;;;4977359;28;20225;-56
2022/12/15 07:13:34;;;;;;;40.43;25.30;;;-7.00;99.90;;;;;;4979349;28;20251;-56
2022/12/15 07:16:01;;;;;;;38.73;21.87;;;-7.00;99.90;;;;;;4978908;28;20205;-55
2022/12/15 07:18:27;;;;;;;37.47;22.97;;;-7.00;99.90;;;;;;4978344;28;20651;-58
2022/12/15 07:20:52;;;;;;;40.53;24.83;;;-7.00;99.90;;;;;;4974112;28;20498;-58
2022/12/15 07:23:18;;;;;;;39.00;23.20;;;-7.00;99.90;;;;;;4979035;28;20678;-55
2022/12/15 07:25:44;;;;;;;35.87;21.60;;;-6.90;99.90;;;;;;4979503;28;20233;-55
2022/12/15 07:28:10;;;;;;;33.60;19.90;;;-7.00;99.90;;;;;;4978399;28;20754;-55
2022/12/15 07:30:36;;;;;;;34.77;20.20;;;-7.00;99.90;;;;;;4978262;28;20255;-55
2022/12/15 07:33:02;;;;;;;35.90;21.47;;;-7.10;99.90;;;;;;4976784;28;20236;-57
2022/12/15 07:35:28;;;;;;;41.17;22.57;;;-7.10;99.90;;;;;;4978022;28;20678;-56
2022/12/15 07:37:54;;;;;;;31.57;19.27;;;-7.10;99.90;;;;;;4977935;28;20228;-56
2022/12/15 07:40:19;;;;;;;40.37;20.90;;;-7.00;99.90;;;;;;4978736;28;20189;-55
2022/12/15 07:42:45;;;;;;;30.10;20.77;;;-7.00;99.90;;;;;;4978307;28;20227;-56
2022/12/15 07:45:11;;;;;;;34.57;21.47;;;-7.10;99.90;;;;;;4978710;28;20197;-55
2022/12/15 07:47:36;;;;;;;32.93;20.87;;;-7.00;99.90;;;;;;4976824;28;20611;-55
2022/12/15 07:50:03;;;;;;;34.63;19.70;;;-7.00;99.90;;;;;;4978129;28;20308;-54
2022/12/15 07:52:29;;;;;;;33.87;21.17;;;-7.00;99.90;;;;;;4978182;28;20212;-55
2022/12/15 07:54:55;;;;;;;28.50;19.10;;;-7.00;99.90;;;;;;4977980;28;20201;-56
2022/12/15 07:57:21;;;;;;;33.23;20.07;;;-7.00;99.90;;;;;;4978066;28;20706;-55
2022/12/15 07:59:46;;;;;;;36.40;20.90;;;-7.00;99.90;;;;;;4975833;28;20189;-57
2022/12/15 08:02:12;;;;;;;33.23;20.23;;;-7.10;99.90;;;;;;4977284;28;20284;-57
2022/12/15 08:04:39;;;;;;;29.03;20.93;;;-7.10;99.90;;;;;;4977310;28;20291;-57
2022/12/15 08:07:05;;;;;;;32.50;20.97;;;-7.10;99.90;;;;;;4977600;28;20271;-57
2022/12/15 08:09:30;;;;;;;31.03;19.77;;;-7.00;99.90;;;;;;4977400;28;20212;-56
2022/12/15 08:11:56;;;;;;;35.73;20.97;;;-7.00;99.90;;;;;;4976177;28;20757;-57
2022/12/15 08:14:22;;;;;;;30.93;19.33;;;-6.90;99.90;;;;;;4977566;28;20335;-57
2022/12/15 08:16:47;;;;;;;36.37;21.10;;;-6.90;99.90;;;;;;4977753;28;20215;-56
2022/12/15 08:19:14;;;;;;;30.77;19.87;;;-6.90;99.90;;;;;;4977650;28;20295;-57
2022/12/15 08:21:41;;;;;;;30.60;20.40;;;-6.90;99.90;;;;;;4977778;28;20212;-56
2022/12/15 08:24:08;;;;;;;39.13;20.87;;;-6.90;99.90;;;;;;4977254;28;20292;-56
2022/12/15 08:26:34;;;;;;;29.47;19.43;;;-6.90;99.90;;;;;;4973133;28;20201;-57
2022/12/15 08:29:02;;;;;;;34.27;19.53;;;-6.90;99.90;;;;;;4978117;28;20644;-57
2022/12/15 08:31:31;;;;;;;31.67;19.47;;;-6.90;99.90;;;;;;4977589;28;20360;-56
2022/12/15 08:33:56;;;;;;;31.30;19.20;;;-6.90;99.90;;;;;;4977980;28;20275;-57
2022/12/15 08:36:22;;;;;;;31.30;19.67;;;-6.80;99.90;;;;;;4975705;28;20224;-56
2022/12/15 08:38:48;;;;;;;35.87;17.10;;;-6.80;99.90;;;;;;4978114;28;20204;-56
2022/12/15 08:41:22;;;;;;;37.23;20.30;;;-6.80;99.90;;;;;;4978211;28;20217;-55
2022/12/15 08:43:49;;;;;;;33.20;19.17;;;-6.80;99.90;;;;;;4975952;28;20223;-55
2022/12/15 08:46:26;;;;;;;34.13;20.57;;;-6.70;99.90;;;;;;4975595;28;20204;-55
2022/12/15 08:48:53;;;;;;;38.07;21.10;;;-6.70;99.90;;;;;;4977711;28;20219;-55
2022/12/15 08:51:19;;;;;;;42.73;21.90;;;-6.70;99.90;;;;;;4977297;28;20212;-55
2022/12/15 08:53:45;;;;;;;34.77;20.90;;;-6.50;99.90;;;;;;4977824;28;20204;-56
2022/12/15 08:56:14;;;;;;;34.67;20.07;;;-6.50;99.90;;;;;;4975685;28;20196;-57
2022/12/15 08:58:40;;;;;;;33.23;19.53;;;-6.40;99.90;;;;;;4977542;28;20212;-55
2022/12/15 09:01:08;;;;;;;33.60;22.47;;;-6.30;99.90;;;;;;4976943;28;21592;-55
2022/12/15 09:03:34;;;;;;;34.27;21.67;;;-6.30;99.90;;;;;;4976909;28;20212;-55
2022/12/15 09:06:07;;;;;;;31.07;20.33;;;-6.30;99.90;;;;;;4975198;28;20209;-56
2022/12/15 09:08:33;;;;;;;33.40;19.77;;;-6.10;99.90;;;;;;4976692;28;20208;-56
2022/12/15 09:11:00;;;;;;;32.90;19.43;;;-6.10;99.90;;;;;;4976735;28;20212;-55
2022/12/15 09:13:26;;;;;;;35.97;19.33;;;-6.00;99.90;;;;;;4977290;28;20213;-56
2022/12/15 09:16:16;;;;;;;35.37;20.97;;;-5.90;99.90;;;;;;4975986;28;20205;-56
2022/12/15 09:18:50;;;;;;;36.20;20.90;;;-5.90;99.90;;;;;;4967593;28;20286;-56
2022/12/15 09:21:17;;;;;;;36.53;22.20;;;-5.80;99.90;;;;;;4975908;28;20231;-57
2022/12/15 09:23:46;;;;;;;31.13;20.57;;;-5.70;99.90;;;;;;4977110;28;20227;-56
2022/12/15 09:26:13;;;;;;;36.30;20.93;;;-5.60;99.90;;;;;;4976667;28;20237;-56
2022/12/15 09:28:39;;;;;;;31.57;20.03;;;-5.50;99.90;;;;;;4975217;28;20208;-56
2022/12/15 09:31:14;;;;;;;42.13;24.20;;;-5.50;99.90;;;;;;4976971;28;20216;-57
2022/12/15 09:33:41;;;;;;;33.73;21.50;;;-5.50;99.90;;;;;;4976181;28;20219;-56
2022/12/15 09:36:07;;;;;;;32.43;20.23;;;-5.50;99.90;;;;;;4976347;28;20251;-57
2022/12/15 09:38:35;;;;;;;34.73;19.67;;;-5.50;99.90;;;;;;4974913;28;20604;-57
2022/12/15 09:41:16;;;;;;;32.53;20.33;;;-5.50;99.90;;;;;;4976522;28;20204;-56
2022/12/15 09:43:50;;;;;;;35.03;20.20;;;-5.50;99.90;;;;;;4976342;28;20243;-56
2022/12/15 09:46:34;;;;;;;36.30;21.53;;;-5.40;99.90;;;;;;4972967;28;20201;-56
2022/12/15 09:49:04;;;;;;;33.60;20.10;;;-5.40;99.90;;;;;;4975798;28;20192;-55
2022/12/15 09:51:42;;;;;;;38.13;20.13;;;-5.40;99.90;;;;;;4972321;28;20307;-56
2022/12/15 09:54:09;;;;;;;37.33;22.77;;;-5.30;99.90;;;;;;4975980;28;20235;-55
2022/12/15 09:56:43;;;;;;;40.53;21.43;;;-5.20;99.90;;;;;;4974091;28;20292;-55
2022/12/15 09:59:36;;;;;;;34.80;20.37;;;-5.10;99.90;;;;;;4976111;28;20254;-56
2022/12/15 10:02:36;;;;;;;37.77;21.63;;;-4.70;99.90;;;;;;4972322;28;20201;-56
2022/12/15 10:05:29;;;;;;;35.70;22.40;;;-4.50;99.90;;;;;;4975811;28;20619;-56
2022/12/15 10:07:58;;;;;;;34.27;20.33;;;-4.30;99.90;;;;;;4972531;28;20212;-55
2022/12/15 10:10:32;;;;;;;35.77;21.67;;;-4.20;99.90;;;;;;4975554;28;20212;-55
2022/12/15 10:13:03;;;;;;;30.47;20.47;;;-4.10;99.90;;;;;;4970511;28;20218;-56
2022/12/15 10:15:53;;;;;;;39.20;22.37;;;-3.80;99.90;;;;;;4975402;28;20192;-56
2022/12/15 10:18:28;;;;;;;29.90;19.10;;;-3.70;99.90;;;;;;4963608;28;20740;-56
2022/12/15 10:20:54;;;;;;;30.00;20.20;;;-3.60;99.90;;;;;;4973821;28;20192;-56
2022/12/15 10:23:20;;;;;;;36.33;21.00;;;-3.60;99.90;;;;;;4974166;28;20707;-57
2022/12/15 10:25:56;;;;;;;31.93;19.80;;;-3.50;99.90;;;;;;4975660;28;20204;-57
2022/12/15 10:28:29;;;;;;;34.43;20.97;;;-3.60;99.90;;;;;;4975321;28;20659;-57
2022/12/15 10:30:58;;;;;;;34.30;18.87;;;-3.60;99.90;;;;;;4973282;28;20212;-56
2022/12/15 10:33:27;;;;;;;30.77;20.07;;;-3.60;99.90;;;;;;4975595;28;20235;-55
2022/12/15 10:35:54;;;;;;;38.20;21.93;;;-3.60;99.90;;;;;;4972753;28;20402;-57
2022/12/15 10:38:39;;;;;;;33.87;21.17;;;-3.50;99.90;;;;;;4971998;28;20262;-57
2022/12/15 10:41:10;;;;;;;29.77;19.07;;;-3.50;99.90;;;;;;4971766;28;20227;-55
2022/12/15 10:43:39;;;;;;;29.20;20.17;;;-3.50;99.90;;;;;;4975272;28;20575;-57
2022/12/15 10:46:07;;;;;;;36.23;20.13;;;-3.50;99.90;;;;;;4976810;28;20662;-56
2022/12/15 10:48:33;;;;;;;33.43;19.43;;;-3.50;99.90;;;;;;4981716;28;20200;-57
2022/12/15 10:51:30;;;;;;;32.07;19.63;;;-3.40;99.90;;;;;;4988502;28;20212;-56
2022/12/15 10:54:05;;;;;;;39.33;22.27;;;-3.20;99.90;;;;;;4986618;28;20251;-58
2022/12/15 10:56:32;;;;;;;35.07;21.00;;;-2.80;99.90;;;;;;4988211;28;20627;-57
2022/12/15 10:59:19;;;;;;;40.13;22.33;;;-2.60;99.90;;;;;;4981227;28;20299;-60
2022/12/15 11:01:45;;;;;;;34.17;20.63;;;-2.30;99.90;;;;;;4985692;28;20229;-59
2022/12/15 11:04:28;;;;;;;31.73;20.20;;;-2.20;99.90;;;;;;4979628;28;21012;-60
2022/12/15 11:06:58;;;;;;;37.00;22.93;;;-2.00;99.90;;;;;;4977250;28;20315;-62
2022/12/15 11:09:34;;;;;;;32.87;20.23;;;-2.00;99.90;;;;;;4975944;28;20319;-59
2022/12/15 11:14:49;;;;;;;35.13;22.37;;;-1.90;99.90;;;;;;4988350;28;20230;-60
2022/12/15 11:17:18;;;;;;;35.67;22.23;;;-1.90;99.90;;;;;;4988701;28;20764;-60
2022/12/15 11:19:59;;;;;;;32.63;20.70;;;-1.90;99.90;;;;;;4978653;28;20205;-62
2022/12/15 11:22:38;;;;;;;34.73;19.90;;;-1.70;99.90;;;;;;4975538;28;20209;-62
2022/12/15 11:25:11;;;;;;;31.07;19.53;;;-1.70;99.90;;;;;;4976777;28;20208;-61
2022/12/15 11:27:38;;;;;;;34.20;19.07;;;-1.70;99.90;;;;;;4978748;28;20209;-62
2022/12/15 11:30:17;;;;;;;29.37;20.67;;;-1.60;99.90;;;;;;4978189;28;20218;-75
2022/12/15 11:32:47;;;;;;;30.90;20.37;;;-1.60;99.90;;;;;;4973882;28;20248;-73
2022/12/15 11:35:15;;;;;;;36.13;22.43;;;-1.60;99.90;;;;;;4978643;28;20578;-59
2022/12/15 11:37:41;;;;;;;34.37;21.63;;;-1.40;99.90;;;;;;4978313;28;20779;-60
2022/12/15 11:40:25;;;;;;;35.43;21.77;;;-1.30;99.90;;;;;;4978495;28;20578;-57
2022/12/15 11:42:50;;;;;;;31.93;21.03;;;-1.30;99.90;;;;;;4975934;28;20204;-58
2022/12/15 11:45:34;;;;;;;30.90;20.07;;;-1.30;99.90;;;;;;4978058;28;20541;-57
2022/12/15 11:48:30;;;;;;;32.17;19.00;;;-1.30;99.90;;;;;;4975259;28;20600;-57
2022/12/15 11:51:09;;;;;;;34.33;21.63;;;-1.40;99.90;;;;;;4978176;28;20367;-58
2022/12/15 11:53:58;;;;;;;33.57;21.73;;;-1.30;99.90;;;;;;4975884;28;20248;-59
2022/12/15 11:56:30;;;;;;;37.43;21.57;;;-1.20;99.90;;;;;;4986375;28;20202;-58
2022/12/15 11:59:35;;;;;;;33.20;20.47;;;-1.00;99.90;;;;;;4975963;28;20205;-58
2022/12/15 12:02:35;;;;;;;33.33;20.53;;;-1.00;99.90;;;;;;4975500;28;21079;-59
2022/12/15 12:05:15;;;;;;;34.60;21.53;;;-1.10;99.90;;;;;;4975742;28;20196;-59
2022/12/15 12:07:46;;;;;;;32.30;20.93;;;-0.90;99.90;;;;;;4967114;28;20905;-60
2022/12/15 12:10:46;;;;;;;40.07;24.93;;;-0.50;99.90;;;;;;4975563;28;20305;-59
2022/12/15 12:13:29;;;;;;;36.30;22.90;;;0.10;99.90;;;;;;4974337;28;20204;-56
2022/12/15 12:16:27;;;;;;;35.87;20.33;;;0.60;99.90;;;;;;4975597;28;20859;-59
2022/12/15 12:19:08;;;;;;;31.10;20.97;;;0.70;99.90;;;;;;4976360;28;20205;-59
2022/12/15 12:21:38;;;;;;;32.50;19.93;;;1.20;99.90;;;;;;4975680;28;20580;-58
2022/12/15 12:24:19;;;;;;;29.83;20.77;;;1.70;99.90;;;;;;4977572;28;20265;-57
2022/12/15 12:26:57;;;;;;;32.23;22.07;;;2.00;99.90;;;;;;4974438;28;20206;-58
2022/12/15 12:29:48;;;;;;;35.10;22.57;;;2.20;99.90;;;;;;4975843;28;20640;-58
2022/12/15 12:32:46;;;;;;;32.67;19.03;;;2.70;99.90;;;;;;4976426;28;20211;-58
2022/12/15 12:35:38;;;;;;;30.93;19.57;;;3.00;98.80;;;;;;4963433;28;20212;-62
2022/12/15 12:38:08;;;;;;;27.63;18.87;;;2.90;99.20;;;;;;4960698;28;20420;-58
2022/12/15 12:40:39;;;;;;;30.93;20.27;;;2.80;98.90;;;;;;4973209;28;20302;-58
2022/12/15 12:43:21;;;;;;;28.90;19.13;;;3.00;99.70;;;;;;4978234;28;20210;-60
2022/12/15 12:45:57;;;;;;;28.37;18.97;;;3.10;97.80;;;;;;4977325;28;20231;-59
2022/12/15 12:48:49;;;;;;;28.43;18.27;;;3.10;97.60;;;;;;4977455;28;20604;-59
2022/12/15 12:51:32;;;;;;;27.53;18.63;;;3.20;98.10;;;;;;4977188;28;20240;-61
2022/12/15 12:53:59;;;;;;;24.50;18.20;;;3.50;98.20;;;;;;4976957;28;20314;-60
2022/12/15 12:56:36;;;;;;;29.83;18.50;;;3.30;97.10;;;;;;4977221;28;20363;-60
2022/12/15 12:59:32;;;;;;;33.07;20.00;;;2.80;98.20;;;;;;4975129;28;20209;-59
2022/12/15 13:02:21;;;;;;;22.13;16.57;;;2.30;98.20;;;;;;4976239;28;20576;-60
2022/12/15 13:04:59;;;;;;;25.50;17.23;;;1.70;99.10;;;;;;4976101;28;20199;-57
2022/12/15 13:07:41;;;;;;;29.00;18.40;;;1.30;99.90;;;;;;4973764;28;20316;-58
2022/12/15 13:10:07;;;;;;;22.73;16.73;;;1.00;99.90;;;;;;4974390;28;20229;-58
2022/12/15 13:12:45;;;;;;;25.60;16.73;;;0.60;99.90;;;;;;4976677;28;20265;-62
2022/12/15 13:15:40;;;;;;;26.03;17.60;;;0.30;99.90;;;;;;4976343;28;20212;-61
2022/12/15 13:18:23;;;;;;;26.27;16.57;;;0.10;99.90;;;;;;4974656;28;20234;-60
2022/12/15 13:20:53;;;;;;;25.20;18.07;;;-0.10;99.90;;;;;;4976311;28;20207;-59
2022/12/15 13:23:18;;;;;;;26.97;18.67;;;-0.30;99.90;;;;;;4976879;28;20197;-60
2022/12/15 13:25:59;;;;;;;30.73;19.47;;;-0.30;99.90;;;;;;4974593;28;20619;-59
2022/12/15 13:28:41;;;;;;;24.87;18.10;;;-0.30;99.90;;;;;;4976131;28;20316;-60
2022/12/15 13:31:19;;;;;;;27.97;18.03;;;-0.40;99.90;;;;;;4974128;28;20225;-60
2022/12/15 13:33:54;;;;;;;29.13;18.57;;;-0.40;99.90;;;;;;4974844;28;20203;-59
2022/12/15 13:36:38;;;;;;;28.40;17.73;;;-0.50;99.90;;;;;;4971804;28;20230;-58
2022/12/15 13:39:15;;;;;;;31.17;18.60;;;-0.50;99.90;;;;;;4974224;28;20213;-60
2022/12/15 13:41:44;;;;;;;30.63;18.80;;;-0.50;99.90;;;;;;4976286;28;20195;-60
2022/12/15 13:44:30;;;;;;;25.87;19.53;;;-0.60;99.90;;;;;;4976215;28;20203;-60
2022/12/15 13:47:04;;;;;;;28.20;18.60;;;-0.70;99.90;;;;;;4976341;28;20208;-59
2022/12/15 13:49:35;;;;;;;49.67;30.07;;;-0.70;99.90;;;;;;4976842;28;20213;-59
2022/12/15 13:52:11;;;;;;;29.37;18.90;;;-0.70;99.90;;;;;;4976242;28;20639;-59
2022/12/15 13:54:40;;;;;;;94.40;51.13;;;-0.70;99.90;;;;;;4975495;28;20229;-60
2022/12/15 13:57:11;;;;;;;158.27;85.13;;;-0.70;99.90;;;;;;4971613;28;20202;-60
2022/12/15 13:59:51;;;;;;;38.13;25.63;;;-0.70;99.90;;;;;;4975270;28;20313;-61
2022/12/15 14:02:24;;;;;;;34.20;20.87;;;-0.80;99.90;;;;;;4975762;28;20205;-60
2022/12/15 14:05:08;;;;;;;33.10;20.07;;;-0.80;99.90;;;;;;4974181;28;20205;-60
2022/12/15 14:07:34;;;;;;;28.73;19.33;;;-0.90;99.90;;;;;;4971369;28;20205;-60
2022/12/15 14:10:02;;;;;;;33.43;22.43;;;-0.90;99.90;;;;;;4975710;28;20222;-61
2022/12/15 14:12:28;;;;;;;28.10;18.57;;;-0.90;99.90;;;;;;4976334;28;20566;-61
2022/12/15 14:14:54;;;;;;;38.77;20.27;;;-0.90;99.90;;;;;;4973508;28;20195;-59
2022/12/15 14:17:20;;;;;;;37.63;21.17;;;-1.00;99.90;;;;;;4975886;28;20652;-60
2022/12/15 14:19:49;;;;;;;33.33;20.23;;;-1.00;99.90;;;;;;4975721;28;20201;-62
2022/12/15 14:22:24;;;;;;;31.03;19.50;;;-1.10;99.90;;;;;;4974398;28;20324;-61
2022/12/15 14:24:51;;;;;;;36.13;22.00;;;-1.10;99.90;;;;;;4975831;28;20698;-62
2022/12/15 14:27:25;;;;;;;34.63;21.37;;;-1.10;99.90;;;;;;4975795;28;20663;-61
2022/12/15 14:30:18;;;;;;;31.10;20.60;;;-1.20;99.90;;;;;;4975149;28;21249;-62
2022/12/15 14:32:51;;;;;;;30.97;18.20;;;-1.20;99.90;;;;;;4973406;28;20213;-59
2022/12/15 14:35:33;;;;;;;29.17;18.63;;;-1.30;99.90;;;;;;4974839;28;20278;-62
2022/12/15 14:38:01;;;;;;;28.70;18.97;;;-1.30;99.90;;;;;;4974288;28;20224;-60
2022/12/15 14:40:28;;;;;;;29.30;20.00;;;-1.30;99.90;;;;;;4970714;28;20213;-59
2022/12/15 14:42:54;;;;;;;26.77;18.83;;;-1.40;99.90;;;;;;4975433;28;20409;-60
2022/12/15 14:45:24;;;;;;;28.53;19.23;;;-1.40;99.90;;;;;;4975315;28;20198;-61
2022/12/15 14:47:54;;;;;;;32.57;20.80;;;-1.50;99.90;;;;;;4975108;28;20206;-59
2022/12/15 14:50:22;;;;;;;34.13;20.93;;;-1.50;99.90;;;;;;4975760;28;20228;-62
2022/12/15 14:52:54;;;;;;;32.53;19.17;;;-1.50;99.90;;;;;;4975008;28;20216;-60
2022/12/15 14:55:32;;;;;;;29.57;18.27;;;-1.50;99.90;;;;;;4948181;28;20198;-60
2022/12/15 14:57:58;;;;;;;24.83;17.30;;;-1.50;99.90;;;;;;4974937;28;20206;-61
2022/12/15 15:00:28;;;;;;;25.70;17.97;;;-1.50;99.90;;;;;;4975418;28;20197;-60
2022/12/15 15:03:13;;;;;;;28.20;18.50;;;-1.50;99.90;;;;;;4978058;28;20201;-61
2022/12/15 15:05:41;;;;;;;32.10;19.80;;;-1.60;99.90;;;;;;4974389;28;21013;-60
2022/12/15 15:08:20;;;;;;;30.30;18.87;;;-1.60;99.90;;;;;;4972176;28;20214;-62
2022/12/15 15:10:45;;;;;;;28.60;18.67;;;-1.70;99.90;;;;;;4974589;28;20241;-61
2022/12/15 15:13:20;;;;;;;29.17;19.27;;;-1.70;99.90;;;;;;4973917;28;20328;-60